createdAt,value
2018-12-13T00:00:18.593Z,6.23
2018-12-13T00:03:25.494Z,6.19
2018-12-13T00:06:33.509Z,5.99
2018-12-13T00:09:38.314Z,6.11
2018-12-13T00:12:44.809Z,6.09
2018-12-13T00:15:49.541Z,6.04
2018-12-13T00:18:54.293Z,5.94
2018-12-13T00:21:59.182Z,5.70
2018-12-13T00:25:03.976Z,6.02
2018-12-13T00:28:08.714Z,5.79
2018-12-13T00:31:13.458Z,6.02
2018-12-13T00:34:18.184Z,5.98
2018-12-13T00:37:22.922Z,6.04
2018-12-13T00:40:27.706Z,5.84
2018-12-13T00:43:32.428Z,5.88
2018-12-13T00:46:37.185Z,5.92
2018-12-13T00:49:41.878Z,6.04
2018-12-13T00:52:46.619Z,5.87
2018-12-13T00:55:51.332Z,5.99
2018-12-13T00:58:56.056Z,5.70
2018-12-13T01:02:00.780Z,5.53
2018-12-13T01:05:05.957Z,5.29
2018-12-13T01:08:11.764Z,5.42
2018-12-13T01:11:16.555Z,5.41
2018-12-13T01:14:21.290Z,5.52
2018-12-13T01:17:26.032Z,5.72
2018-12-13T01:20:30.918Z,5.71
2018-12-13T01:23:35.693Z,5.66
2018-12-13T01:26:40.529Z,5.72
2018-12-13T01:29:45.248Z,5.71
2018-12-13T01:32:51.145Z,5.78
2018-12-13T01:35:55.861Z,5.74
2018-12-13T01:39:00.597Z,5.87
2018-12-13T01:42:07.372Z,5.73
2018-12-13T01:45:12.129Z,5.78
2018-12-13T01:48:16.962Z,5.79
2018-12-13T01:51:21.703Z,5.71
2018-12-13T01:54:26.427Z,5.71
2018-12-13T01:57:31.147Z,5.76
2018-12-13T02:00:36.420Z,5.77
2018-12-13T02:03:41.182Z,5.76
2018-12-13T02:06:46.068Z,5.51
2018-12-13T02:09:50.818Z,5.48
2018-12-13T02:12:55.571Z,5.02
2018-12-13T02:16:00.306Z,4.93
2018-12-13T02:19:05.002Z,5.23
2018-12-13T02:22:09.743Z,4.91
2018-12-13T02:25:14.661Z,5.02
2018-12-13T02:28:19.390Z,5.33
2018-12-13T02:31:24.133Z,5.25
2018-12-13T02:34:28.865Z,5.39
2018-12-13T02:37:33.646Z,4.92
2018-12-13T02:40:38.477Z,5.30
2018-12-13T02:43:43.199Z,5.27
2018-12-13T02:46:47.991Z,5.42
2018-12-13T02:49:52.735Z,5.36
2018-12-13T02:52:57.616Z,5.50
2018-12-13T02:56:02.306Z,5.45
2018-12-13T02:59:07.060Z,5.33
2018-12-13T03:02:11.872Z,5.36
2018-12-13T03:05:16.671Z,5.04
2018-12-13T03:08:21.429Z,4.95
2018-12-13T03:11:26.193Z,5.12
2018-12-13T03:14:30.931Z,5.08
2018-12-13T03:17:35.637Z,5.30
2018-12-13T03:20:40.385Z,5.28
2018-12-13T03:23:45.090Z,5.29
2018-12-13T03:26:49.790Z,4.89
2018-12-13T03:29:54.533Z,4.86
2018-12-13T03:32:59.286Z,4.97
2018-12-13T03:36:04.073Z,4.88
2018-12-13T03:39:09.401Z,4.45
2018-12-13T03:42:14.235Z,4.78
2018-12-13T03:45:18.963Z,5.05
2018-12-13T03:48:23.680Z,5.01
2018-12-13T03:51:28.418Z,4.49
2018-12-13T03:54:33.117Z,4.67
2018-12-13T03:57:37.859Z,4.80
2018-12-13T04:00:42.709Z,4.94
2018-12-13T04:03:47.794Z,5.20
2018-12-13T04:06:52.549Z,5.14
2018-12-13T04:09:57.284Z,4.99
2018-12-13T04:13:02.043Z,4.79
2018-12-13T04:16:06.775Z,5.01
2018-12-13T04:19:11.495Z,5.11
2018-12-13T04:22:16.196Z,4.87
2018-12-13T04:25:20.899Z,4.78
2018-12-13T04:28:25.620Z,4.62
2018-12-13T04:31:30.437Z,4.49
2018-12-13T04:34:35.190Z,4.21
2018-12-13T04:37:39.914Z,4.04
2018-12-13T04:40:44.605Z,4.35
2018-12-13T04:43:49.308Z,4.20
2018-12-13T04:46:54.214Z,4.26
2018-12-13T04:49:58.945Z,4.01
2018-12-13T04:53:03.689Z,3.83
2018-12-13T04:56:08.425Z,3.69
2018-12-13T04:59:13.145Z,3.79
2018-12-13T05:02:18.027Z,4.14
2018-12-13T05:05:22.793Z,4.33
2018-12-13T05:08:27.794Z,4.46
2018-12-13T05:11:32.527Z,4.60
2018-12-13T05:14:37.269Z,4.61
2018-12-13T05:17:42.032Z,4.41
2018-12-13T05:20:46.756Z,4.53
2018-12-13T05:23:51.563Z,4.37
2018-12-13T05:26:56.261Z,4.40
2018-12-13T05:30:00.991Z,4.14
2018-12-13T05:33:05.746Z,3.89
2018-12-13T05:36:10.475Z,3.25
2018-12-13T05:39:15.278Z,3.62
2018-12-13T05:42:20.099Z,4.14
2018-12-13T05:45:24.838Z,3.93
2018-12-13T05:48:29.548Z,3.20
2018-12-13T05:51:34.344Z,3.31
2018-12-13T05:54:39.071Z,3.16
2018-12-13T05:57:43.805Z,2.78
2018-12-13T06:00:48.534Z,3.11
2018-12-13T06:03:53.365Z,3.45
2018-12-13T06:06:58.062Z,3.34
2018-12-13T06:10:02.838Z,3.76
2018-12-13T06:13:07.615Z,3.70
2018-12-13T06:16:12.356Z,3.80
2018-12-13T06:19:17.077Z,3.48
2018-12-13T06:22:21.834Z,3.77
2018-12-13T06:25:26.702Z,4.16
2018-12-13T06:28:31.465Z,4.39
2018-12-13T06:31:36.201Z,4.63
2018-12-13T06:34:41.003Z,4.41
2018-12-13T06:37:45.729Z,4.72
2018-12-13T06:40:50.501Z,4.64
2018-12-13T06:43:55.223Z,4.28
2018-12-13T06:46:59.965Z,4.18
2018-12-13T06:50:05.153Z,4.50
2018-12-13T06:53:09.882Z,4.56
2018-12-13T06:56:14.666Z,4.42
2018-12-13T06:59:19.402Z,4.53
2018-12-13T07:02:24.126Z,4.46
2018-12-13T07:05:28.858Z,4.67
2018-12-13T07:08:33.610Z,4.64
2018-12-13T07:11:38.786Z,4.74
2018-12-13T07:14:43.522Z,5.06
2018-12-13T07:17:48.292Z,5.88
2018-12-13T07:20:53.076Z,6.37
2018-12-13T07:23:57.854Z,6.51
2018-12-13T07:27:02.562Z,6.73
2018-12-13T07:30:08.889Z,6.52
2018-12-13T07:33:13.626Z,6.55
2018-12-13T07:36:18.412Z,6.52
2018-12-13T07:39:23.158Z,6.69
2018-12-13T07:42:28.025Z,7.19
2018-12-13T07:45:32.837Z,7.77
2018-12-13T07:48:37.710Z,8.20
2018-12-13T07:51:42.445Z,8.74
2018-12-13T07:54:47.140Z,9.00
2018-12-13T07:57:51.848Z,9.50
2018-12-13T08:00:56.605Z,9.63
2018-12-13T08:04:01.335Z,9.89
2018-12-13T08:07:06.101Z,10.22
2018-12-13T08:10:10.836Z,10.65
2018-12-13T08:13:15.611Z,10.31
2018-12-13T08:16:20.334Z,10.53
2018-12-13T08:19:27.081Z,10.58
2018-12-13T08:22:33.229Z,10.78
2018-12-13T08:25:37.954Z,10.82
2018-12-13T08:28:42.656Z,10.74
2018-12-13T08:31:47.378Z,10.38
2018-12-13T08:34:52.097Z,10.71
2018-12-13T08:37:56.806Z,10.68
2018-12-13T08:41:01.509Z,10.96
2018-12-13T08:44:07.654Z,10.95
2018-12-13T08:47:12.377Z,10.73
2018-12-13T08:50:17.078Z,11.04
2018-12-13T08:53:21.780Z,10.87
2018-12-13T08:56:27.690Z,11.24
2018-12-13T08:59:32.437Z,11.09
2018-12-13T09:02:37.171Z,11.52
2018-12-13T09:05:41.896Z,12.07
2018-12-13T09:08:46.642Z,12.32
2018-12-13T09:11:51.318Z,12.17
2018-12-13T09:14:56.034Z,11.57
2018-12-13T09:18:00.757Z,11.94
2018-12-13T09:21:05.463Z,12.17
2018-12-13T09:24:10.249Z,12.72
2018-12-13T09:27:15.028Z,12.89
2018-12-13T09:30:19.729Z,13.23
2018-12-13T09:33:24.465Z,12.99
2018-12-13T09:36:29.219Z,13.21
2018-12-13T09:39:33.909Z,13.08
2018-12-13T09:42:38.617Z,13.55
2018-12-13T09:45:43.311Z,13.49
2018-12-13T09:48:49.390Z,13.81
2018-12-13T09:51:54.386Z,13.72
2018-12-13T09:55:05.438Z,13.64
2018-12-13T09:58:05.900Z,13.77
2018-12-13T10:01:10.595Z,13.90
2018-12-13T10:04:15.303Z,13.80
2018-12-13T10:07:20.070Z,13.61
2018-12-13T10:10:25.086Z,12.95
2018-12-13T10:13:29.882Z,13.47
2018-12-13T10:16:34.588Z,14.03
2018-12-13T10:19:39.310Z,13.97
2018-12-13T10:22:44.023Z,14.51
2018-12-13T10:25:48.886Z,14.86
2018-12-13T10:28:53.715Z,14.51
2018-12-13T10:31:58.448Z,14.55
2018-12-13T10:35:03.146Z,14.37
2018-12-13T10:38:08.984Z,14.52
2018-12-13T10:41:13.663Z,13.68
2018-12-13T10:44:22.446Z,13.40
2018-12-13T10:47:27.154Z,13.45
2018-12-13T10:50:31.870Z,14.42
2018-12-13T10:53:36.561Z,14.10
2018-12-13T10:56:41.241Z,14.10
2018-12-13T10:59:45.924Z,14.39
2018-12-13T11:03:05.665Z,13.49
2018-12-13T11:06:10.349Z,13.41
2018-12-13T11:09:15.274Z,13.30
2018-12-13T11:12:22.010Z,13.64
2018-12-13T11:15:26.715Z,13.93
2018-12-13T11:18:31.433Z,14.07
2018-12-13T11:21:36.132Z,14.11
2018-12-13T11:24:40.862Z,14.12
2018-12-13T11:29:57.248Z,14.31
2018-12-13T11:33:01.985Z,13.68
2018-12-13T11:36:06.773Z,13.73
2018-12-13T11:39:11.457Z,13.55
2018-12-13T11:42:17.295Z,13.44
2018-12-13T11:45:22.095Z,13.60
2018-12-13T11:48:26.773Z,13.31
2018-12-13T11:51:31.621Z,13.74
2018-12-13T11:54:42.611Z,14.07
2018-12-13T11:57:47.314Z,13.79
2018-12-13T12:00:52.027Z,13.22
2018-12-13T12:03:56.738Z,12.70
2018-12-13T12:07:01.481Z,12.71
2018-12-13T12:10:06.501Z,12.56
2018-12-13T12:13:11.263Z,12.88
2018-12-13T12:16:15.988Z,13.17
2018-12-13T12:19:20.721Z,13.08
2018-12-13T12:22:25.481Z,13.21
2018-12-13T12:25:30.219Z,13.39
2018-12-13T12:28:35.074Z,12.97
2018-12-13T12:31:39.766Z,12.52
2018-12-13T12:34:44.539Z,12.89
2018-12-13T12:37:49.246Z,12.89
2018-12-13T12:40:54.000Z,12.93
2018-12-13T12:43:58.688Z,13.34
2018-12-13T12:47:03.595Z,12.94
2018-12-13T12:50:09.088Z,12.63
2018-12-13T12:53:13.842Z,12.86
2018-12-13T12:56:19.666Z,13.03
2018-12-13T12:59:24.356Z,12.72
2018-12-13T13:02:30.231Z,12.28
2018-12-13T13:05:34.990Z,12.05
2018-12-13T13:08:39.733Z,11.59
2018-12-13T13:11:44.520Z,11.52
2018-12-13T13:14:49.198Z,11.67
2018-12-13T13:17:53.885Z,11.70
2018-12-13T13:20:58.586Z,11.52
2018-12-13T13:24:03.318Z,11.01
2018-12-13T13:27:08.005Z,11.18
2018-12-13T13:30:12.921Z,11.14
2018-12-13T13:33:17.637Z,11.02
2018-12-13T13:36:22.381Z,10.76
2018-12-13T13:39:31.467Z,10.89
2018-12-13T13:42:33.833Z,10.55
2018-12-13T13:45:38.563Z,10.59
2018-12-13T13:48:43.415Z,9.97
2018-12-13T13:51:48.088Z,9.75
2018-12-13T13:54:52.812Z,9.61
2018-12-13T13:57:57.501Z,9.57
2018-12-13T14:01:02.201Z,9.78
2018-12-13T14:04:08.359Z,9.62
2018-12-13T14:07:13.070Z,9.53
2018-12-13T14:10:17.758Z,9.53
2018-12-13T14:13:22.462Z,9.38
2018-12-13T14:16:27.198Z,9.61
2018-12-13T14:19:31.928Z,9.35
2018-12-13T14:22:36.640Z,9.19
2018-12-13T14:25:41.353Z,8.75
2018-12-13T14:28:47.090Z,8.44
2018-12-13T14:31:51.772Z,8.14
2018-12-13T14:34:57.586Z,8.39
2018-12-13T14:38:02.361Z,8.07
2018-12-13T14:41:09.147Z,7.99
2018-12-13T14:44:36.788Z,8.05
2018-12-13T14:47:41.490Z,8.12
2018-12-13T14:50:46.190Z,8.24
2018-12-13T14:53:50.900Z,8.35
2018-12-13T14:56:55.626Z,7.91
2018-12-13T15:00:00.324Z,8.19
2018-12-13T15:03:07.119Z,7.95
2018-12-13T15:06:12.105Z,8.13
2018-12-13T15:09:16.807Z,8.11
2018-12-13T15:12:21.522Z,8.20
2018-12-13T15:15:26.367Z,7.91
2018-12-13T15:18:32.121Z,7.99
2018-12-13T15:21:36.835Z,8.21
2018-12-13T15:24:41.497Z,8.29
2018-12-13T15:27:46.229Z,8.08
2018-12-13T15:30:50.942Z,8.16
2018-12-13T15:33:55.677Z,8.06
2018-12-13T15:37:00.379Z,8.21
2018-12-13T15:40:05.406Z,8.34
2018-12-13T15:43:10.278Z,8.34
2018-12-13T15:46:14.977Z,8.48
2018-12-13T15:49:20.259Z,8.54
2018-12-13T15:52:25.008Z,8.51
2018-12-13T15:55:29.740Z,8.46
2018-12-13T15:58:34.425Z,8.23
2018-12-13T16:01:39.119Z,8.03
2018-12-13T16:04:43.837Z,7.98
2018-12-13T16:07:48.507Z,8.02
2018-12-13T16:10:53.221Z,7.90
2018-12-13T16:13:57.979Z,7.78
2018-12-13T16:17:02.781Z,7.96
2018-12-13T16:20:07.822Z,7.98
2018-12-13T16:23:13.221Z,7.76
2018-12-13T16:26:18.021Z,7.79
2018-12-13T16:29:22.717Z,7.93
2018-12-13T16:32:27.539Z,8.10
2018-12-13T16:35:32.261Z,8.06
2018-12-13T16:38:37.017Z,7.61
2018-12-13T16:41:41.795Z,7.78
2018-12-13T16:44:46.508Z,8.02
2018-12-13T16:47:51.207Z,7.79
2018-12-13T16:50:56.054Z,7.70
2018-12-13T16:54:00.759Z,7.56
2018-12-13T16:57:05.517Z,7.67
2018-12-13T17:00:10.450Z,7.25
2018-12-13T17:03:27.921Z,7.38
2018-12-13T17:06:32.646Z,7.67
2018-12-13T17:09:37.346Z,7.61
2018-12-13T17:12:42.048Z,7.65
2018-12-13T17:15:46.745Z,7.69
2018-12-13T17:18:51.647Z,7.48
2018-12-13T17:21:56.348Z,7.62
2018-12-13T17:25:01.504Z,7.42
2018-12-13T17:28:06.217Z,7.70
2018-12-13T17:31:10.921Z,7.08
2018-12-13T17:34:15.638Z,7.17
2018-12-13T17:37:20.337Z,6.86
2018-12-13T17:40:25.043Z,6.59
2018-12-13T17:43:29.813Z,6.67
2018-12-13T17:46:35.416Z,6.38
2018-12-13T17:49:40.275Z,6.50
2018-12-13T17:52:45.961Z,6.72
2018-12-13T17:55:50.792Z,6.67
2018-12-13T17:58:55.928Z,6.26
2018-12-13T18:02:00.638Z,6.50
2018-12-13T18:05:06.011Z,6.57
2018-12-13T18:08:10.736Z,6.16
2018-12-13T18:11:15.588Z,6.71
2018-12-13T18:14:20.306Z,6.64
2018-12-13T18:17:25.078Z,6.68
2018-12-13T18:20:30.344Z,6.49
2018-12-13T18:23:35.350Z,6.28
2018-12-13T18:26:40.459Z,6.23
2018-12-13T18:29:46.577Z,6.63
2018-12-13T18:32:51.637Z,6.85
2018-12-13T18:35:56.338Z,6.87
2018-12-13T18:39:01.061Z,6.49
2018-12-13T18:42:07.857Z,7.01
2018-12-13T18:45:12.620Z,7.14
2018-12-13T18:48:17.342Z,7.11
2018-12-13T18:51:22.097Z,6.98
2018-12-13T18:54:26.829Z,7.18
2018-12-13T18:57:31.533Z,7.06
2018-12-13T19:03:54.628Z,7.24
2018-12-13T19:07:00.021Z,7.33
2018-12-13T19:10:05.455Z,7.21
2018-12-13T19:13:10.194Z,7.39
2018-12-13T19:16:15.089Z,7.24
2018-12-13T19:19:22.361Z,7.43
2018-12-13T19:22:28.291Z,7.18
2018-12-13T19:25:33.083Z,7.14
2018-12-13T19:28:37.825Z,6.77
2018-12-13T19:31:44.426Z,7.19
2018-12-13T19:34:49.127Z,7.28
2018-12-13T19:37:54.554Z,7.12
2018-12-13T19:40:59.312Z,6.85
2018-12-13T19:44:04.120Z,6.79
2018-12-13T19:47:08.850Z,6.75
2018-12-13T19:50:13.606Z,6.81
2018-12-13T19:53:18.505Z,6.93
2018-12-13T19:56:23.566Z,7.17
2018-12-13T19:59:28.302Z,7.39
2018-12-13T20:02:33.049Z,7.34
2018-12-13T20:05:38.723Z,7.28
2018-12-13T20:08:44.050Z,7.19
2018-12-13T20:11:48.927Z,6.98
2018-12-13T20:14:53.805Z,6.70
2018-12-13T20:17:58.550Z,6.88
2018-12-13T20:21:03.286Z,6.89
2018-12-13T20:24:08.304Z,6.86
2018-12-13T20:27:13.546Z,6.87
2018-12-13T20:30:18.365Z,6.95
2018-12-13T20:33:23.118Z,7.15
2018-12-13T20:36:27.896Z,7.29
2018-12-13T20:39:32.607Z,7.03
2018-12-13T20:42:37.933Z,7.16
2018-12-13T20:45:43.426Z,7.13
2018-12-13T20:48:48.167Z,6.80
2018-12-13T20:51:52.961Z,6.77
2018-12-13T20:54:57.678Z,6.97
2018-12-13T20:58:05.439Z,7.15
2018-12-13T21:01:10.646Z,7.17
2018-12-13T21:04:15.390Z,7.23
2018-12-13T21:07:25.061Z,7.13
2018-12-13T21:10:29.823Z,7.10
2018-12-13T21:13:34.569Z,7.01
2018-12-13T21:16:39.284Z,6.90
2018-12-13T21:19:44.008Z,6.82
2018-12-13T21:22:48.827Z,7.24
2018-12-13T21:25:53.560Z,7.28
2018-12-13T21:28:58.318Z,7.38
2018-12-13T21:32:03.104Z,7.37
2018-12-13T21:35:08.241Z,7.46
2018-12-13T21:38:14.403Z,7.41
2018-12-13T21:41:19.134Z,7.49
2018-12-13T21:44:24.890Z,7.27
2018-12-13T21:47:29.669Z,7.42
2018-12-13T21:50:34.385Z,7.41
2018-12-13T21:53:39.127Z,7.39
2018-12-13T21:56:44.312Z,7.36
2018-12-13T21:59:49.059Z,7.36
2018-12-13T22:02:53.754Z,7.39
2018-12-13T22:05:58.489Z,7.26
2018-12-13T22:09:04.144Z,7.38
2018-12-13T22:12:10.964Z,7.28
2018-12-13T22:15:16.433Z,7.28
2018-12-13T22:18:21.196Z,7.21
2018-12-13T22:21:25.969Z,7.38
2018-12-13T22:24:30.702Z,7.40
2018-12-13T22:27:35.508Z,6.74
2018-12-13T22:30:40.260Z,6.74
2018-12-13T22:33:45.028Z,6.95
2018-12-13T22:36:50.146Z,7.15
2018-12-13T22:39:54.868Z,7.14
2018-12-13T22:42:59.633Z,7.01
2018-12-13T22:46:04.881Z,6.69
2018-12-13T22:49:09.663Z,6.71
2018-12-13T22:52:14.458Z,6.19
2018-12-13T22:55:19.293Z,6.55
2018-12-13T22:58:24.059Z,6.80
2018-12-13T23:01:28.983Z,6.86
2018-12-13T23:04:33.999Z,6.95
2018-12-13T23:07:39.923Z,6.86
2018-12-13T23:10:44.842Z,6.96
2018-12-13T23:13:49.630Z,6.96
2018-12-13T23:16:54.405Z,7.08
2018-12-13T23:19:59.139Z,7.09
2018-12-13T23:23:03.921Z,7.04
2018-12-13T23:26:08.678Z,6.99
2018-12-13T23:29:13.433Z,6.93
2018-12-13T23:32:18.193Z,6.53
2018-12-13T23:35:22.953Z,6.52
2018-12-13T23:38:27.717Z,6.41
2018-12-13T23:41:32.462Z,6.43
2018-12-13T23:44:37.210Z,6.45
2018-12-13T23:47:42.143Z,6.47
2018-12-13T23:50:46.887Z,6.58
2018-12-13T23:53:51.724Z,6.29
2018-12-13T23:56:56.505Z,6.58
